createdAt,value
2022-11-24T00:01:11.459Z,6.95
2022-11-24T00:03:37.974Z,6.89
2022-11-24T00:06:07.361Z,6.94
2022-11-24T00:08:38.200Z,6.95
2022-11-24T00:11:10.272Z,6.97
2022-11-24T00:13:39.153Z,7.00
2022-11-24T00:16:11.247Z,7.02
2022-11-24T00:18:39.220Z,7.05
2022-11-24T00:21:06.284Z,7.01
2022-11-24T00:23:33.351Z,7.04
2022-11-24T00:26:13.874Z,7.02
2022-11-24T00:28:42.067Z,7.00
2022-11-24T00:31:22.283Z,6.98
2022-11-24T00:33:51.092Z,6.95
2022-11-24T00:36:19.184Z,6.93
2022-11-24T00:38:45.933Z,6.90
2022-11-24T00:41:13.085Z,6.91
2022-11-24T00:43:39.667Z,6.87
2022-11-24T00:46:06.335Z,6.86
2022-11-24T00:48:32.882Z,6.82
2022-11-24T00:51:05.005Z,6.80
2022-11-24T00:53:31.928Z,6.75
2022-11-24T00:55:58.397Z,6.78
2022-11-24T00:58:25.176Z,6.75
2022-11-24T01:00:52.378Z,6.76
2022-11-24T01:03:20.677Z,6.78
2022-11-24T01:05:47.374Z,6.81
2022-11-24T01:08:15.115Z,6.85
2022-11-24T01:10:41.506Z,6.87
2022-11-24T01:13:07.937Z,6.87
2022-11-24T01:15:35.973Z,6.87
2022-11-24T01:18:02.941Z,6.88
2022-11-24T01:20:29.641Z,6.88
2022-11-24T01:22:56.077Z,6.91
2022-11-24T01:25:22.632Z,6.90
2022-11-24T01:27:49.044Z,6.92
2022-11-24T01:30:15.518Z,6.95
2022-11-24T01:32:41.907Z,6.96
2022-11-24T01:35:09.094Z,6.97
2022-11-24T01:37:35.463Z,6.97
2022-11-24T01:40:01.940Z,6.97
2022-11-24T01:42:40.134Z,6.97
2022-11-24T01:45:28.505Z,7.01
2022-11-24T01:47:55.759Z,7.02
2022-11-24T01:50:22.821Z,7.00
2022-11-24T01:52:53.716Z,7.07
2022-11-24T01:55:30.799Z,7.05
2022-11-24T01:58:02.827Z,7.14
2022-11-24T02:00:29.280Z,7.16
2022-11-24T02:02:58.234Z,7.16
2022-11-24T02:05:37.758Z,7.17
2022-11-24T02:08:07.869Z,7.15
2022-11-24T02:10:34.983Z,7.18
2022-11-24T02:13:01.625Z,7.19
2022-11-24T02:15:28.706Z,7.17
2022-11-24T02:17:55.376Z,7.14
2022-11-24T02:20:21.880Z,7.12
2022-11-24T02:22:54.352Z,7.11
2022-11-24T02:25:45.739Z,7.10
2022-11-24T02:28:16.180Z,7.06
2022-11-24T02:30:42.768Z,7.01
2022-11-24T02:33:11.781Z,7.03
2022-11-24T02:35:38.491Z,7.02
2022-11-24T02:38:05.061Z,7.01
2022-11-24T02:40:31.601Z,6.98
2022-11-24T02:43:05.483Z,6.94
2022-11-24T02:45:31.980Z,6.90
2022-11-24T02:47:58.634Z,6.93
2022-11-24T02:50:25.517Z,6.92
2022-11-24T02:52:52.036Z,6.94
2022-11-24T02:55:18.541Z,6.96
2022-11-24T02:57:44.936Z,6.97
2022-11-24T03:00:11.993Z,6.94
2022-11-24T03:02:38.736Z,6.96
2022-11-24T03:05:06.419Z,6.96
2022-11-24T03:07:33.062Z,6.94
2022-11-24T03:09:59.570Z,6.92
2022-11-24T03:12:26.131Z,6.90
2022-11-24T03:14:52.597Z,6.83
2022-11-24T03:17:18.983Z,6.74
2022-11-24T03:19:45.531Z,6.65
2022-11-24T03:22:13.198Z,6.61
2022-11-24T03:24:39.631Z,6.52
2022-11-24T03:27:06.111Z,6.44
2022-11-24T03:29:32.528Z,6.36
2022-11-24T03:31:58.994Z,6.28
2022-11-24T03:34:25.422Z,6.19
2022-11-24T03:36:51.865Z,6.11
2022-11-24T03:39:18.272Z,6.08
2022-11-24T03:41:44.672Z,6.03
2022-11-24T03:44:11.066Z,6.00
2022-11-24T03:46:37.567Z,5.99
2022-11-24T03:49:04.014Z,5.94
2022-11-24T03:51:30.393Z,5.89
2022-11-24T03:53:56.813Z,5.86
2022-11-24T03:56:23.219Z,5.84
2022-11-24T03:58:49.995Z,5.78
2022-11-24T04:01:16.447Z,5.76
2022-11-24T04:03:42.902Z,5.72
2022-11-24T04:06:09.460Z,5.71
2022-11-24T04:08:35.857Z,5.68
2022-11-24T04:11:02.401Z,5.67
2022-11-24T04:13:28.826Z,5.66
2022-11-24T04:15:55.251Z,5.64
2022-11-24T04:18:22.475Z,5.64
2022-11-24T04:20:50.579Z,5.65
2022-11-24T04:23:17.542Z,5.62
2022-11-24T04:25:43.967Z,5.64
2022-11-24T04:28:11.516Z,5.63
2022-11-24T04:30:38.577Z,5.62
2022-11-24T04:33:04.983Z,5.60
2022-11-24T04:35:31.363Z,5.56
2022-11-24T04:38:01.536Z,5.56
2022-11-24T04:40:27.937Z,5.56
2022-11-24T04:42:55.356Z,5.54
2022-11-24T04:45:22.485Z,5.52
2022-11-24T04:47:48.955Z,5.52
2022-11-24T04:50:15.911Z,5.49
2022-11-24T04:52:43.287Z,5.51
2022-11-24T04:55:10.059Z,5.49
2022-11-24T04:57:36.455Z,5.48
2022-11-24T05:00:04.034Z,5.48
2022-11-24T05:02:30.446Z,5.50
2022-11-24T05:04:56.884Z,5.51
2022-11-24T05:07:23.371Z,5.51
2022-11-24T05:10:08.381Z,5.53
2022-11-24T05:12:34.817Z,5.52
2022-11-24T05:15:03.851Z,5.50
2022-11-24T05:17:32.580Z,5.55
2022-11-24T05:19:59.107Z,5.54
2022-11-24T05:22:26.891Z,5.54
2022-11-24T05:24:53.384Z,5.53
2022-11-24T05:27:19.765Z,5.52
2022-11-24T05:29:46.142Z,5.51
2022-11-24T05:32:12.527Z,5.50
2022-11-24T05:34:38.999Z,5.47
2022-11-24T05:37:05.563Z,5.43
2022-11-24T05:39:33.929Z,5.41
2022-11-24T05:42:22.088Z,5.41
2022-11-24T05:44:48.668Z,5.37
2022-11-24T05:47:15.151Z,5.28
2022-11-24T05:49:41.630Z,5.25
2022-11-24T05:52:08.209Z,5.24
2022-11-24T05:54:34.837Z,5.20
2022-11-24T05:57:01.472Z,5.13
2022-11-24T05:59:27.902Z,5.13
2022-11-24T06:01:54.373Z,5.11
2022-11-24T06:04:20.883Z,5.10
2022-11-24T06:06:47.436Z,5.08
2022-11-24T06:09:13.855Z,5.08
2022-11-24T06:11:40.273Z,5.10
2022-11-24T06:14:10.883Z,5.08
2022-11-24T06:16:37.852Z,5.08
2022-11-24T06:19:04.321Z,5.11
2022-11-24T06:21:31.765Z,5.08
2022-11-24T06:23:58.537Z,5.15
2022-11-24T06:26:25.047Z,5.18
2022-11-24T06:28:51.503Z,5.20
2022-11-24T06:31:18.026Z,5.21
2022-11-24T06:33:44.768Z,5.20
2022-11-24T06:36:14.016Z,5.24
2022-11-24T06:38:40.713Z,5.25
2022-11-24T06:41:13.056Z,5.28
2022-11-24T06:43:39.825Z,5.30
2022-11-24T06:46:06.405Z,5.33
2022-11-24T06:48:33.355Z,5.35
2022-11-24T06:51:01.518Z,5.36
2022-11-24T06:53:32.937Z,5.40
2022-11-24T06:56:00.565Z,5.44
2022-11-24T06:58:27.160Z,5.44
2022-11-24T07:00:53.975Z,5.48
2022-11-24T07:03:20.517Z,5.53
2022-11-24T07:05:46.999Z,5.60
2022-11-24T07:08:17.775Z,5.66
2022-11-24T07:10:45.454Z,5.71
2022-11-24T07:13:11.923Z,5.78
2022-11-24T07:15:38.447Z,5.80
2022-11-24T07:18:04.952Z,5.88
2022-11-24T07:20:31.524Z,5.93
2022-11-24T07:22:58.458Z,5.92
2022-11-24T07:25:28.409Z,6.03
2022-11-24T07:27:59.413Z,6.08
2022-11-24T07:30:29.017Z,6.13
2022-11-24T07:32:59.827Z,6.12
2022-11-24T07:35:26.372Z,6.16
2022-11-24T07:37:57.110Z,6.18
2022-11-24T07:40:25.939Z,6.22
2022-11-24T07:42:52.776Z,6.23
2022-11-24T07:45:20.036Z,6.27
2022-11-24T07:47:46.493Z,6.29
2022-11-24T07:50:13.539Z,6.31
2022-11-24T07:52:40.119Z,6.34
2022-11-24T07:55:07.800Z,6.36
2022-11-24T07:57:34.616Z,6.44
2022-11-24T08:00:01.093Z,6.50
2022-11-24T08:02:27.580Z,6.52
2022-11-24T08:04:54.051Z,6.52
2022-11-24T08:07:20.682Z,6.53
2022-11-24T08:09:47.250Z,6.52
2022-11-24T08:12:13.685Z,6.51
2022-11-24T08:14:40.087Z,6.50
2022-11-24T08:17:06.501Z,6.49
2022-11-24T08:19:33.065Z,6.47
2022-11-24T08:21:59.461Z,6.45
2022-11-24T08:24:27.121Z,6.47
2022-11-24T08:26:53.525Z,6.45
2022-11-24T08:29:19.927Z,6.45
2022-11-24T08:31:46.418Z,6.46
2022-11-24T08:34:13.016Z,6.45
2022-11-24T08:36:39.759Z,6.46
2022-11-24T08:39:06.249Z,6.48
2022-11-24T08:41:33.174Z,6.48
2022-11-24T08:43:59.630Z,6.48
2022-11-24T08:46:26.275Z,6.47
2022-11-24T08:48:54.538Z,6.47
2022-11-24T08:51:23.915Z,6.47
2022-11-24T08:53:54.967Z,6.47
2022-11-24T08:56:21.398Z,6.47
2022-11-24T08:58:47.904Z,6.48
2022-11-24T09:01:16.839Z,6.49
2022-11-24T09:03:50.024Z,6.47
2022-11-24T09:06:23.673Z,6.46
2022-11-24T09:08:51.827Z,6.45
2022-11-24T09:11:18.441Z,6.47
2022-11-24T09:13:44.949Z,6.48
2022-11-24T09:16:18.156Z,6.48
2022-11-24T09:18:45.304Z,6.47
2022-11-24T09:21:17.516Z,6.47
2022-11-24T09:23:46.022Z,6.48
2022-11-24T09:26:14.942Z,6.50
2022-11-24T09:28:42.078Z,6.53
2022-11-24T09:31:11.997Z,6.54
2022-11-24T09:33:39.304Z,6.60
2022-11-24T09:36:06.255Z,6.62
2022-11-24T09:38:33.018Z,6.61
2022-11-24T09:41:14.732Z,6.64
2022-11-24T09:43:47.767Z,6.66
2022-11-24T09:46:24.180Z,6.69
2022-11-24T09:48:54.900Z,6.71
2022-11-24T09:51:25.817Z,6.72
2022-11-24T09:54:00.931Z,6.73
2022-11-24T09:56:28.967Z,6.74
2022-11-24T09:59:07.108Z,6.76
2022-11-24T10:01:37.096Z,6.75
2022-11-24T10:04:06.741Z,6.71
2022-11-24T10:06:41.568Z,6.74
2022-11-24T10:09:31.165Z,6.75
2022-11-24T10:12:06.581Z,6.77
2022-11-24T10:14:32.961Z,6.76
2022-11-24T10:17:11.830Z,6.80
2022-11-24T10:20:02.774Z,6.85
2022-11-24T10:23:00.717Z,6.85
2022-11-24T10:25:42.051Z,6.86
2022-11-24T10:28:14.920Z,6.85
2022-11-24T10:30:42.113Z,6.90
2022-11-24T10:33:18.399Z,6.92
2022-11-24T10:35:50.281Z,6.95
2022-11-24T10:38:37.397Z,6.95
2022-11-24T10:41:11.533Z,6.96
2022-11-24T10:43:41.245Z,6.96
2022-11-24T10:46:16.183Z,6.95
2022-11-24T10:48:52.253Z,6.93
2022-11-24T10:51:51.715Z,6.97
2022-11-24T10:54:23.459Z,6.95
2022-11-24T10:56:52.229Z,6.92
2022-11-24T10:59:24.727Z,6.93
2022-11-24T11:01:52.625Z,6.95
2022-11-24T11:04:21.892Z,6.93
2022-11-24T11:06:48.301Z,6.92
2022-11-24T11:09:14.676Z,6.88
2022-11-24T11:11:42.839Z,6.83
2022-11-24T11:14:13.012Z,6.81
2022-11-24T11:16:43.587Z,6.81
2022-11-24T11:19:58.630Z,6.78
2022-11-24T11:22:30.006Z,6.73
2022-11-24T11:25:23.212Z,6.70
2022-11-24T11:27:49.816Z,6.67
2022-11-24T11:36:11.528Z,6.73
2022-11-24T11:38:40.324Z,6.80
2022-11-24T11:41:17.679Z,6.82
2022-11-24T11:43:45.826Z,6.85
2022-11-24T11:46:16.284Z,6.88
2022-11-24T11:48:46.770Z,6.94
2022-11-24T11:51:31.967Z,6.99
2022-11-24T11:54:09.310Z,7.05
2022-11-24T11:56:49.479Z,7.17
2022-11-24T11:59:49.292Z,7.30
2022-11-24T12:02:38.283Z,7.51
2022-11-24T12:05:24.640Z,7.81
2022-11-24T12:08:11.684Z,7.93
2022-11-24T12:11:05.280Z,7.98
2022-11-24T12:13:59.435Z,7.94
2022-11-24T12:16:35.049Z,7.89
2022-11-24T12:19:19.983Z,7.93
2022-11-24T12:22:06.766Z,7.96
2022-11-24T12:25:16.970Z,7.89
2022-11-24T12:28:19.644Z,7.80
2022-11-24T12:31:04.725Z,7.78
2022-11-24T12:33:49.103Z,7.73
2022-11-24T12:36:48.360Z,7.67
2022-11-24T12:39:42.744Z,7.69
2022-11-24T12:42:18.131Z,7.79
2022-11-24T12:45:01.055Z,8.08
2022-11-24T12:47:49.754Z,8.65
2022-11-24T12:50:19.721Z,9.01
2022-11-24T12:52:52.880Z,9.25
2022-11-24T12:55:23.171Z,9.54
2022-11-24T12:58:09.309Z,9.73
2022-11-24T13:00:59.246Z,9.73
2022-11-24T13:03:51.092Z,9.71
2022-11-24T13:06:23.135Z,9.63
2022-11-24T13:08:50.107Z,9.60
2022-11-24T13:11:22.557Z,9.46
2022-11-24T13:14:07.031Z,9.31
2022-11-24T13:16:37.064Z,9.13
2022-11-24T13:19:12.534Z,8.99
2022-11-24T13:21:42.761Z,8.85
2022-11-24T13:24:19.349Z,8.75
2022-11-24T13:26:49.041Z,8.59
2022-11-24T13:29:30.535Z,8.48
2022-11-24T13:32:02.737Z,8.37
2022-11-24T13:34:42.616Z,8.17
2022-11-24T13:37:34.803Z,7.99
2022-11-24T13:40:11.628Z,7.88
2022-11-24T13:42:56.478Z,7.89
2022-11-24T13:45:49.529Z,7.92
2022-11-24T13:48:19.022Z,7.90
2022-11-24T13:50:51.540Z,7.88
2022-11-24T13:53:31.900Z,7.81
2022-11-24T13:55:59.676Z,7.83
2022-11-24T13:58:30.950Z,7.83
2022-11-24T14:01:06.836Z,7.82
2022-11-24T14:03:35.136Z,7.74
2022-11-24T14:06:02.968Z,7.67
2022-11-24T14:08:38.116Z,7.62
2022-11-24T14:11:13.361Z,7.62
2022-11-24T14:13:39.885Z,7.63
2022-11-24T14:16:15.710Z,7.65
2022-11-24T14:18:44.645Z,7.69
2022-11-24T14:21:20.297Z,7.87
2022-11-24T14:23:50.971Z,7.89
2022-11-24T14:26:20.986Z,7.92
2022-11-24T14:28:48.484Z,7.85
2022-11-24T14:31:21.915Z,7.83
2022-11-24T14:33:48.843Z,7.80
2022-11-24T14:36:17.114Z,7.76
2022-11-24T14:38:43.950Z,7.75
2022-11-24T14:41:26.217Z,7.71
2022-11-24T14:44:30.830Z,7.66
2022-11-24T14:47:06.032Z,7.57
2022-11-24T14:49:37.283Z,7.57
2022-11-24T14:52:08.506Z,7.54
2022-11-24T14:54:44.751Z,7.49
2022-11-24T14:57:26.784Z,7.47
2022-11-24T15:00:12.213Z,7.45
2022-11-24T15:02:46.135Z,7.43
2022-11-24T15:05:12.876Z,7.44
2022-11-24T15:07:41.157Z,7.45
2022-11-24T15:10:33.635Z,7.47
2022-11-24T15:13:03.160Z,7.50
2022-11-24T15:15:33.542Z,7.53
2022-11-24T15:18:01.905Z,7.54
2022-11-24T15:20:32.127Z,7.54
2022-11-24T15:23:19.604Z,7.50
2022-11-24T15:25:46.262Z,7.45
2022-11-24T15:28:12.672Z,7.38
2022-11-24T15:30:39.092Z,7.34
2022-11-24T15:33:14.875Z,7.32
2022-11-24T15:35:41.987Z,7.24
2022-11-24T15:38:08.558Z,7.21
2022-11-24T15:40:36.976Z,7.13
2022-11-24T15:43:18.680Z,7.08
2022-11-24T15:45:45.231Z,7.02
2022-11-24T15:48:17.511Z,6.97
2022-11-24T15:50:45.688Z,6.98
2022-11-24T15:53:28.562Z,6.96
2022-11-24T15:55:56.997Z,7.00
2022-11-24T15:58:23.677Z,7.00
2022-11-24T16:00:50.996Z,7.00
2022-11-24T16:03:45.712Z,7.00
2022-11-24T16:06:03.894Z,6.98
2022-11-24T16:08:30.381Z,6.99
2022-11-24T16:10:56.829Z,6.95
2022-11-24T16:13:23.240Z,6.98
2022-11-24T16:15:49.899Z,6.99
2022-11-24T16:18:16.422Z,6.99
2022-11-24T16:20:42.865Z,6.99
2022-11-24T16:23:09.304Z,6.99
2022-11-24T16:25:35.738Z,6.98
2022-11-24T16:28:02.388Z,6.99
2022-11-24T16:30:28.863Z,6.99
2022-11-24T16:32:55.317Z,6.98
2022-11-24T16:35:21.788Z,7.00
2022-11-24T16:37:48.905Z,6.99
2022-11-24T16:40:15.410Z,7.00
2022-11-24T16:42:41.953Z,7.00
2022-11-24T16:45:12.196Z,7.02
2022-11-24T16:47:40.515Z,7.01
2022-11-24T16:50:08.675Z,6.99
2022-11-24T16:52:35.107Z,6.97
2022-11-24T16:55:01.821Z,6.95
2022-11-24T16:57:28.234Z,6.93
2022-11-24T16:59:54.653Z,6.91
2022-11-24T17:02:21.175Z,6.89
2022-11-24T17:04:47.695Z,6.87
2022-11-24T17:07:15.370Z,6.84
2022-11-24T17:09:41.887Z,6.81
2022-11-24T17:12:08.305Z,6.77
2022-11-24T17:14:35.722Z,6.75
2022-11-24T17:17:03.092Z,6.72
2022-11-24T17:19:31.759Z,6.69
2022-11-24T17:21:58.307Z,6.65
2022-11-24T17:24:24.784Z,6.62
2022-11-24T17:26:51.426Z,6.59
2022-11-24T17:29:18.950Z,6.49
2022-11-24T17:31:45.478Z,6.49
2022-11-24T17:34:12.392Z,6.41
2022-11-24T17:36:44.642Z,6.43
2022-11-24T17:39:11.395Z,6.39
2022-11-24T17:41:38.136Z,6.40
2022-11-24T17:44:04.595Z,6.36
2022-11-24T17:46:31.203Z,6.33
2022-11-24T17:48:57.703Z,6.34
2022-11-24T17:51:26.444Z,6.26
2022-11-24T17:53:54.359Z,6.29
2022-11-24T17:56:23.614Z,6.27
2022-11-24T17:58:54.864Z,6.25
2022-11-24T18:01:21.898Z,6.25
2022-11-24T18:03:53.225Z,6.21
2022-11-24T18:06:20.474Z,6.19
2022-11-24T18:08:47.637Z,6.15
2022-11-24T18:11:30.199Z,6.13
2022-11-24T18:14:01.171Z,6.11
2022-11-24T18:16:30.169Z,6.10
2022-11-24T18:19:14.873Z,6.10
2022-11-24T18:21:43.572Z,6.07
2022-11-24T18:24:11.295Z,6.02
2022-11-24T18:26:39.163Z,6.01
2022-11-24T18:29:05.676Z,5.99
2022-11-24T18:31:34.208Z,5.93
2022-11-24T18:34:01.798Z,5.84
2022-11-24T18:36:30.619Z,5.85
2022-11-24T18:39:03.674Z,5.81
2022-11-24T18:41:30.084Z,5.78
2022-11-24T18:43:56.512Z,5.76
2022-11-24T18:46:22.955Z,5.76
2022-11-24T18:48:51.874Z,5.76
2022-11-24T18:51:18.611Z,5.76
2022-11-24T18:53:46.340Z,5.79
2022-11-24T18:56:17.330Z,5.80
2022-11-24T18:58:44.371Z,5.79
2022-11-24T19:01:10.858Z,5.75
2022-11-24T19:03:43.591Z,5.71
2022-11-24T19:06:18.988Z,5.68
2022-11-24T19:08:45.982Z,5.70
2022-11-24T19:11:29.976Z,5.72
2022-11-24T19:13:56.796Z,5.74
2022-11-24T19:16:24.159Z,5.77
2022-11-24T19:18:54.083Z,5.80
2022-11-24T19:21:22.126Z,5.84
2022-11-24T19:23:49.252Z,5.85
2022-11-24T19:26:15.734Z,5.83
2022-11-24T19:28:42.234Z,5.81
2022-11-24T19:31:11.826Z,5.78
2022-11-24T19:33:39.087Z,5.76
2022-11-24T19:36:15.679Z,5.72
2022-11-24T19:38:43.298Z,5.70
2022-11-24T19:41:12.336Z,5.69
2022-11-24T19:43:39.456Z,5.66
2022-11-24T19:46:07.272Z,5.63
2022-11-24T19:48:36.340Z,5.56
2022-11-24T19:51:05.930Z,5.51
2022-11-24T19:53:32.913Z,5.32
2022-11-24T19:56:10.893Z,5.47
2022-11-24T19:58:38.082Z,5.45
2022-11-24T20:01:12.804Z,5.44
2022-11-24T20:03:40.607Z,5.44
2022-11-24T20:06:08.625Z,5.43
2022-11-24T20:08:36.924Z,5.43
2022-11-24T20:11:15.588Z,5.45
2022-11-24T20:13:44.427Z,5.43
2022-11-24T20:16:13.706Z,5.38
2022-11-24T20:18:46.396Z,5.42
2022-11-24T20:21:20.767Z,5.36
2022-11-24T20:23:54.632Z,5.27
2022-11-24T20:26:23.017Z,5.15
2022-11-24T20:28:51.049Z,5.05
2022-11-24T20:31:21.251Z,5.02
2022-11-24T20:33:48.075Z,4.98
2022-11-24T20:36:16.899Z,4.95
2022-11-24T20:38:44.472Z,4.92
2022-11-24T20:41:16.686Z,4.83
2022-11-24T20:43:44.151Z,4.71
2022-11-24T20:46:17.127Z,4.60
2022-11-24T20:48:43.984Z,4.58
2022-11-24T20:51:17.269Z,4.56
2022-11-24T20:53:44.442Z,4.56
2022-11-24T20:56:14.236Z,4.57
2022-11-24T20:58:40.786Z,4.57
2022-11-24T21:01:08.556Z,4.56
2022-11-24T21:03:41.404Z,4.54
2022-11-24T21:06:10.811Z,4.49
2022-11-24T21:08:38.831Z,4.42
2022-11-24T21:11:06.665Z,4.34
2022-11-24T21:13:34.753Z,4.29
2022-11-24T21:16:11.988Z,4.23
2022-11-24T21:18:38.607Z,4.17
2022-11-24T21:21:05.160Z,4.19
2022-11-24T21:23:31.612Z,4.20
2022-11-24T21:26:05.372Z,4.27
2022-11-24T21:28:33.196Z,4.29
2022-11-24T21:31:07.508Z,4.25
2022-11-24T21:33:34.153Z,4.32
2022-11-24T21:36:02.590Z,4.35
2022-11-24T21:38:29.400Z,4.37
2022-11-24T21:41:07.156Z,4.36
2022-11-24T21:43:34.263Z,4.33
2022-11-24T21:46:08.752Z,4.32
2022-11-24T21:48:36.632Z,4.26
2022-11-24T21:51:05.870Z,4.32
2022-11-24T21:53:36.402Z,4.31
2022-11-24T21:56:14.480Z,4.35
2022-11-24T21:58:49.347Z,4.36
2022-11-24T22:01:18.576Z,4.42
2022-11-24T22:03:45.889Z,4.45
2022-11-24T22:06:13.147Z,4.49
2022-11-24T22:08:39.896Z,4.54
2022-11-24T22:11:18.610Z,4.57
2022-11-24T22:13:45.806Z,4.57
2022-11-24T22:16:14.851Z,4.57
2022-11-24T22:18:42.498Z,4.57
2022-11-24T22:21:12.530Z,4.58
2022-11-24T22:23:39.085Z,4.57
2022-11-24T22:26:16.909Z,4.55
2022-11-24T22:28:44.530Z,4.52
2022-11-24T22:31:22.497Z,4.48
2022-11-24T22:33:50.180Z,4.41
2022-11-24T22:36:18.133Z,4.37
2022-11-24T22:38:44.668Z,4.32
2022-11-24T22:41:16.653Z,4.23
2022-11-24T22:43:44.437Z,4.15
2022-11-24T22:46:12.393Z,4.12
2022-11-24T22:48:39.809Z,4.07
2022-11-24T22:51:11.937Z,4.07
2022-11-24T22:53:38.970Z,4.05
2022-11-24T22:56:09.409Z,4.07
2022-11-24T22:58:36.227Z,4.04
2022-11-24T23:01:11.133Z,4.02
2022-11-24T23:03:38.358Z,3.95
2022-11-24T23:06:08.407Z,3.92
2022-11-24T23:08:36.009Z,3.87
2022-11-24T23:11:04.963Z,3.81
2022-11-24T23:13:31.695Z,3.76
2022-11-24T23:16:07.140Z,3.85
2022-11-24T23:18:34.410Z,3.87
2022-11-24T23:21:10.475Z,3.89
2022-11-24T23:23:37.056Z,3.85
2022-11-24T23:26:05.270Z,3.80
2022-11-24T23:28:32.123Z,3.76
2022-11-24T23:31:27.341Z,3.77
2022-11-24T23:33:58.104Z,3.78
2022-11-24T23:36:25.343Z,3.78
2022-11-24T23:38:52.183Z,3.81
2022-11-24T23:41:24.349Z,3.77
2022-11-24T23:43:52.252Z,3.75
2022-11-24T23:46:21.179Z,3.78
2022-11-24T23:48:48.876Z,3.76
2022-11-24T23:51:17.606Z,3.77
2022-11-24T23:53:44.461Z,3.80
2022-11-24T23:56:16.012Z,3.83
2022-11-24T23:58:42.999Z,3.83
